createdAt,value
2019-04-29T00:01:21.446Z,2.10
2019-04-29T00:03:51.170Z,1.97
2019-04-29T00:06:21.831Z,1.17
2019-04-29T00:08:51.473Z,2.77
2019-04-29T00:11:21.380Z,2.47
2019-04-29T00:13:51.398Z,1.70
2019-04-29T00:16:29.771Z,2.47
2019-04-29T00:19:13.423Z,2.63
2019-04-29T00:21:43.148Z,2.87
2019-04-29T00:24:12.891Z,2.57
2019-04-29T00:26:42.623Z,2.13
2019-04-29T00:29:12.289Z,1.13
2019-04-29T00:31:41.948Z,1.60
2019-04-29T00:34:11.608Z,2.33
2019-04-29T00:36:54.020Z,1.73
2019-04-29T00:39:44.896Z,2.17
2019-04-29T00:42:36.414Z,1.83
2019-04-29T00:45:06.856Z,1.63
2019-04-29T00:47:36.520Z,2.20
2019-04-29T00:50:06.754Z,1.53
2019-04-29T00:52:36.401Z,1.80
2019-04-29T00:55:10.802Z,2.37
2019-04-29T00:57:40.455Z,1.60
2019-04-29T01:00:12.511Z,2.40
2019-04-29T01:02:42.199Z,2.60
2019-04-29T01:05:12.206Z,1.33
2019-04-29T01:07:41.861Z,1.47
2019-04-29T01:10:12.468Z,1.53
2019-04-29T01:12:42.359Z,1.37
2019-04-29T01:15:12.499Z,1.83
2019-04-29T01:17:42.221Z,1.03
2019-04-29T01:20:12.449Z,1.47
2019-04-29T01:22:42.882Z,2.13
2019-04-29T01:25:12.888Z,1.60
2019-04-29T01:27:49.308Z,1.27
2019-04-29T01:31:05.882Z,2.83
2019-04-29T01:33:35.594Z,1.97
2019-04-29T01:36:23.033Z,0.90
2019-04-29T01:38:54.513Z,0.77
2019-04-29T01:41:26.375Z,1.10
2019-04-29T01:43:59.450Z,1.77
2019-04-29T01:46:29.658Z,1.70
2019-04-29T01:48:59.456Z,2.20
2019-04-29T01:51:29.202Z,2.63
2019-04-29T01:53:58.921Z,2.47
2019-04-29T01:56:28.583Z,2.17
2019-04-29T01:58:58.301Z,1.33
2019-04-29T02:01:27.954Z,2.40
2019-04-29T02:03:58.680Z,1.30
2019-04-29T02:06:28.533Z,2.60
2019-04-29T02:08:58.187Z,1.80
2019-04-29T02:11:27.850Z,1.90
2019-04-29T02:13:57.512Z,2.53
2019-04-29T02:16:27.188Z,2.07
2019-04-29T02:18:56.851Z,2.20
2019-04-29T02:21:26.522Z,1.63
2019-04-29T02:24:05.366Z,1.50
2019-04-29T02:26:35.041Z,0.87
2019-04-29T02:29:04.832Z,2.40
2019-04-29T02:31:42.342Z,1.43
2019-04-29T02:34:12.073Z,1.67
2019-04-29T02:36:41.811Z,1.13
2019-04-29T02:39:29.440Z,0.50
2019-04-29T02:42:27.153Z,1.20
2019-04-29T02:45:00.129Z,1.07
2019-04-29T02:47:29.798Z,1.20
2019-04-29T02:49:59.447Z,1.47
2019-04-29T02:52:29.114Z,1.43
2019-04-29T02:55:01.182Z,1.97
2019-04-29T02:57:38.690Z,1.00
2019-04-29T03:00:19.674Z,2.23
2019-04-29T03:02:54.737Z,1.77
2019-04-29T03:05:27.155Z,1.50
2019-04-29T03:07:57.164Z,1.63
2019-04-29T03:10:26.830Z,1.10
2019-04-29T03:12:56.495Z,0.90
2019-04-29T03:15:31.237Z,1.80
2019-04-29T03:18:02.105Z,1.20
2019-04-29T03:20:37.158Z,1.37
2019-04-29T03:23:15.209Z,1.20
2019-04-29T03:25:44.928Z,1.80
2019-04-29T03:28:14.619Z,1.97
2019-04-29T03:30:44.297Z,2.47
2019-04-29T03:33:14.102Z,1.93
2019-04-29T03:35:43.854Z,2.87
2019-04-29T03:38:13.512Z,2.47
2019-04-29T03:40:44.285Z,3.23
2019-04-29T03:43:13.944Z,1.53
2019-04-29T03:45:43.585Z,2.67
2019-04-29T03:48:13.252Z,2.40
2019-04-29T03:50:42.916Z,2.53
2019-04-29T03:53:12.590Z,2.77
2019-04-29T03:55:42.231Z,3.40
2019-04-29T03:58:12.964Z,2.60
2019-04-29T04:00:44.491Z,2.20
2019-04-29T04:03:21.530Z,2.57
2019-04-29T04:06:08.891Z,1.83
2019-04-29T04:08:41.926Z,1.67
2019-04-29T04:11:11.568Z,2.57
2019-04-29T04:13:41.260Z,1.67
2019-04-29T04:16:15.473Z,1.93
2019-04-29T04:18:45.122Z,3.47
2019-04-29T04:21:14.770Z,1.63
2019-04-29T04:23:44.451Z,3.07
2019-04-29T04:26:14.109Z,2.87
2019-04-29T04:28:43.792Z,2.93
2019-04-29T04:31:13.478Z,1.47
2019-04-29T04:33:43.141Z,1.87
2019-04-29T04:36:12.845Z,3.47
2019-04-29T04:38:42.510Z,3.57
2019-04-29T04:41:12.163Z,2.80
2019-04-29T04:43:41.836Z,2.33
2019-04-29T04:46:11.497Z,2.17
2019-04-29T04:48:41.149Z,2.57
2019-04-29T04:51:10.818Z,2.47
2019-04-29T04:53:40.472Z,2.60
2019-04-29T04:56:10.211Z,2.13
2019-04-29T04:58:39.960Z,2.03
2019-04-29T05:01:09.605Z,2.37
2019-04-29T05:03:39.321Z,2.33
2019-04-29T05:06:09.173Z,2.30
2019-04-29T05:08:38.819Z,2.10
2019-04-29T05:11:08.501Z,2.00
2019-04-29T05:13:38.147Z,2.53
2019-04-29T05:16:07.823Z,1.87
2019-04-29T05:18:37.478Z,2.10
2019-04-29T05:21:07.149Z,3.17
2019-04-29T05:23:36.803Z,1.73
2019-04-29T05:26:06.483Z,2.50
2019-04-29T05:28:36.130Z,1.53
2019-04-29T05:31:05.882Z,2.47
2019-04-29T05:33:35.538Z,2.63
2019-04-29T05:36:17.247Z,1.90
2019-04-29T05:38:55.740Z,2.20
2019-04-29T05:41:30.217Z,2.70
2019-04-29T05:44:19.018Z,3.30
2019-04-29T05:46:57.052Z,2.97
2019-04-29T05:49:32.021Z,2.30
2019-04-29T05:52:21.157Z,2.33
2019-04-29T05:54:50.804Z,3.00
2019-04-29T05:57:25.215Z,3.33
2019-04-29T05:59:51.795Z,3.47
2019-04-29T06:02:23.575Z,2.13
2019-04-29T06:04:54.000Z,3.83
2019-04-29T06:07:26.781Z,3.20
2019-04-29T06:09:55.311Z,4.40
2019-04-29T06:12:24.971Z,3.43
2019-04-29T06:14:54.644Z,3.50
2019-04-29T06:17:24.317Z,2.93
2019-04-29T06:19:53.967Z,4.07
2019-04-29T06:22:23.639Z,5.47
2019-04-29T06:24:53.309Z,3.63
2019-04-29T06:27:22.982Z,4.13
2019-04-29T06:29:52.760Z,3.27
2019-04-29T06:32:24.825Z,4.83
2019-04-29T06:34:53.741Z,2.80
2019-04-29T06:37:23.404Z,4.87
2019-04-29T06:39:53.067Z,5.20
2019-04-29T06:42:22.727Z,5.07
2019-04-29T06:44:52.390Z,5.30
2019-04-29T06:47:22.062Z,5.30
2019-04-29T06:49:51.723Z,5.90
2019-04-29T06:52:21.399Z,6.63
2019-04-29T06:54:51.065Z,5.33
2019-04-29T06:57:20.735Z,6.53
2019-04-29T06:59:50.390Z,7.50
2019-04-29T07:02:20.140Z,5.40
2019-04-29T07:04:49.797Z,7.00
2019-04-29T07:07:19.479Z,5.93
2019-04-29T07:09:49.153Z,5.97
2019-04-29T07:12:18.835Z,4.97
2019-04-29T07:14:48.565Z,5.83
2019-04-29T07:17:18.247Z,7.53
2019-04-29T07:19:47.934Z,6.83
2019-04-29T07:22:20.879Z,6.97
2019-04-29T07:24:49.037Z,9.53
2019-04-29T07:27:18.757Z,9.97
2019-04-29T07:29:48.491Z,8.43
2019-04-29T07:32:18.170Z,6.80
2019-04-29T07:34:47.876Z,8.40
2019-04-29T07:37:17.563Z,7.57
2019-04-29T07:39:47.244Z,8.67
2019-04-29T07:42:16.976Z,6.10
2019-04-29T07:45:05.681Z,9.87
2019-04-29T07:47:36.337Z,8.23
2019-04-29T07:50:06.859Z,6.63
2019-04-29T07:52:36.559Z,6.70
2019-04-29T07:55:06.799Z,8.13
2019-04-29T07:57:36.499Z,6.37
2019-04-29T08:00:08.544Z,8.53
2019-04-29T08:02:38.251Z,8.50
2019-04-29T08:05:08.365Z,9.33
2019-04-29T08:07:39.087Z,7.80
2019-04-29T08:10:22.785Z,7.83
2019-04-29T08:12:43.234Z,9.90
2019-04-29T08:15:13.355Z,10.43
2019-04-29T08:17:43.019Z,10.70
2019-04-29T08:20:13.139Z,7.47
2019-04-29T08:22:42.849Z,7.87
2019-04-29T08:25:12.853Z,8.43
2019-04-29T08:27:43.867Z,7.23
2019-04-29T08:30:14.025Z,7.30
2019-04-29T08:32:43.752Z,6.67
2019-04-29T08:35:13.434Z,7.37
2019-04-29T08:37:43.103Z,9.23
2019-04-29T08:40:16.193Z,6.87
2019-04-29T08:42:50.772Z,8.53
2019-04-29T08:45:28.543Z,6.63
2019-04-29T08:47:58.695Z,7.07
2019-04-29T08:50:28.438Z,7.80
2019-04-29T08:52:58.099Z,6.37
2019-04-29T08:55:30.885Z,9.53
2019-04-29T08:57:59.211Z,6.50
2019-04-29T09:00:28.880Z,8.40
2019-04-29T09:02:58.555Z,7.63
2019-04-29T09:05:28.388Z,6.80
2019-04-29T09:07:59.119Z,7.07
2019-04-29T09:10:33.066Z,8.00
2019-04-29T09:13:01.321Z,6.63
2019-04-29T09:15:30.997Z,6.97
2019-04-29T09:18:00.675Z,6.03
2019-04-29T09:20:30.340Z,7.73
2019-04-29T09:23:03.351Z,7.50
2019-04-29T09:25:42.492Z,7.87
2019-04-29T09:28:17.978Z,5.63
2019-04-29T09:30:45.077Z,5.63
2019-04-29T09:33:14.844Z,7.47
2019-04-29T09:35:44.651Z,8.13
2019-04-29T09:38:14.330Z,6.87
2019-04-29T09:40:54.568Z,5.07
2019-04-29T09:43:39.726Z,7.00
2019-04-29T09:46:18.527Z,5.70
2019-04-29T09:48:47.953Z,6.30
2019-04-29T09:51:22.135Z,6.33
2019-04-29T09:53:49.163Z,6.53
2019-04-29T09:56:18.865Z,6.90
2019-04-29T09:58:50.328Z,7.70
2019-04-29T10:01:36.856Z,7.07
2019-04-29T10:04:16.792Z,6.67
2019-04-29T10:06:47.813Z,4.27
2019-04-29T10:09:17.705Z,5.00
2019-04-29T10:11:47.390Z,4.10
2019-04-29T10:14:17.046Z,5.07
2019-04-29T10:17:04.286Z,4.63
2019-04-29T10:19:55.752Z,5.10
2019-04-29T10:22:25.423Z,3.50
2019-04-29T10:24:55.092Z,5.20
2019-04-29T10:27:24.841Z,4.67
2019-04-29T10:29:57.114Z,4.43
2019-04-29T10:32:26.913Z,4.97
2019-04-29T10:34:56.568Z,5.13
2019-04-29T10:37:31.434Z,6.13
2019-04-29T10:40:11.250Z,5.47
2019-04-29T10:43:02.276Z,6.73
2019-04-29T10:45:43.747Z,6.63
2019-04-29T10:48:20.488Z,7.30
2019-04-29T10:50:52.624Z,6.70
2019-04-29T10:53:23.434Z,5.93
2019-04-29T10:55:53.510Z,6.33
2019-04-29T10:58:30.230Z,6.77
2019-04-29T11:02:01.322Z,7.20
2019-04-29T11:04:31.619Z,5.83
2019-04-29T11:07:13.564Z,6.80
2019-04-29T11:09:52.789Z,7.40
2019-04-29T11:12:22.425Z,5.87
2019-04-29T11:14:52.102Z,6.57
2019-04-29T11:17:24.248Z,7.13
2019-04-29T11:19:54.494Z,7.63
2019-04-29T11:22:28.449Z,7.83
2019-04-29T11:25:15.723Z,6.97
2019-04-29T11:27:49.628Z,7.30
2019-04-29T11:30:23.039Z,5.10
2019-04-29T11:33:10.620Z,6.73
2019-04-29T11:36:03.908Z,7.80
2019-04-29T11:38:33.415Z,7.10
2019-04-29T11:41:02.197Z,8.37
2019-04-29T11:43:32.055Z,8.17
2019-04-29T11:46:01.777Z,8.53
2019-04-29T11:48:31.620Z,7.90
2019-04-29T11:51:14.098Z,9.60
2019-04-29T11:53:43.771Z,5.37
2019-04-29T11:56:13.438Z,8.27
2019-04-29T11:58:49.074Z,8.13
2019-04-29T12:01:51.712Z,8.80
2019-04-29T12:04:32.823Z,7.57
2019-04-29T12:06:59.906Z,9.37
2019-04-29T12:09:30.564Z,8.83
2019-04-29T12:12:01.116Z,8.80
2019-04-29T12:14:48.100Z,9.53
2019-04-29T12:17:39.509Z,8.90
2019-04-29T12:20:17.621Z,8.10
2019-04-29T12:22:48.902Z,8.87
2019-04-29T12:25:18.883Z,8.30
2019-04-29T12:27:52.787Z,8.87
2019-04-29T12:30:22.008Z,9.27
2019-04-29T12:33:03.577Z,9.33
2019-04-29T12:35:52.041Z,8.33
2019-04-29T12:38:40.126Z,9.33
2019-04-29T12:41:31.600Z,9.37
2019-04-29T12:44:15.200Z,8.93
2019-04-29T12:46:51.430Z,8.23
2019-04-29T12:49:21.177Z,9.00
2019-04-29T12:51:50.852Z,9.43
2019-04-29T12:54:20.586Z,8.10
2019-04-29T12:56:50.348Z,8.73
2019-04-29T12:59:20.229Z,8.77
2019-04-29T13:02:05.319Z,8.93
2019-04-29T13:04:49.880Z,7.87
2019-04-29T13:07:34.458Z,7.67
2019-04-29T13:10:13.880Z,6.67
2019-04-29T13:12:44.531Z,8.60
2019-04-29T13:15:33.367Z,7.80
2019-04-29T13:18:14.311Z,8.67
2019-04-29T13:20:45.642Z,7.23
2019-04-29T13:23:19.529Z,8.20
2019-04-29T13:25:44.716Z,8.30
2019-04-29T13:28:29.229Z,8.73
2019-04-29T13:30:46.662Z,7.60
2019-04-29T13:33:17.010Z,7.60
2019-04-29T13:35:48.355Z,6.93
2019-04-29T13:38:18.393Z,7.27
2019-04-29T13:40:48.298Z,7.57
2019-04-29T13:43:20.748Z,7.93
2019-04-29T13:45:57.814Z,7.17
2019-04-29T13:48:55.826Z,6.97
2019-04-29T13:51:36.063Z,8.07
2019-04-29T13:53:55.379Z,7.77
2019-04-29T13:56:33.195Z,6.70
2019-04-29T13:58:57.954Z,7.43
2019-04-29T14:02:01.284Z,6.63
2019-04-29T14:04:27.594Z,7.17
2019-04-29T14:06:57.761Z,6.87
2019-04-29T14:09:27.619Z,7.30
2019-04-29T14:12:02.123Z,6.87
2019-04-29T14:14:28.683Z,6.93
2019-04-29T14:17:17.232Z,6.07
2019-04-29T14:19:45.056Z,6.67
2019-04-29T14:22:01.193Z,6.27
2019-04-29T14:24:30.862Z,6.60
2019-04-29T14:27:00.548Z,6.10
2019-04-29T14:29:30.445Z,6.70
2019-04-29T14:32:01.342Z,7.37
2019-04-29T14:34:38.050Z,6.93
2019-04-29T14:37:21.356Z,6.27
2019-04-29T14:39:39.099Z,6.63
2019-04-29T14:42:17.194Z,6.37
2019-04-29T14:45:06.872Z,6.57
2019-04-29T14:47:42.714Z,5.97
2019-04-29T14:50:15.542Z,6.30
2019-04-29T14:52:44.667Z,6.20
2019-04-29T14:55:20.082Z,6.33
2019-04-29T14:57:46.996Z,6.27
2019-04-29T15:00:27.210Z,6.37
2019-04-29T15:03:00.771Z,6.90
2019-04-29T15:05:28.313Z,5.73
2019-04-29T15:07:58.015Z,7.23
2019-04-29T15:10:31.249Z,6.80
2019-04-29T15:13:19.312Z,6.90
2019-04-29T15:16:03.743Z,7.40
2019-04-29T15:18:50.176Z,6.67
2019-04-29T15:21:33.762Z,5.63
2019-04-29T15:24:04.048Z,6.20
2019-04-29T15:26:33.737Z,7.23
2019-04-29T15:29:03.465Z,6.77
2019-04-29T15:31:33.190Z,7.07
2019-04-29T15:34:02.941Z,6.87
2019-04-29T15:36:34.822Z,6.70
2019-04-29T15:39:11.210Z,6.77
2019-04-29T15:41:38.801Z,6.87
2019-04-29T15:44:13.825Z,7.17
2019-04-29T15:46:46.204Z,7.37
2019-04-29T15:49:11.472Z,7.27
2019-04-29T15:51:44.179Z,7.23
2019-04-29T15:54:14.442Z,6.97
2019-04-29T15:56:44.099Z,6.90
2019-04-29T15:59:13.914Z,7.30
2019-04-29T16:01:44.109Z,6.67
2019-04-29T16:04:20.921Z,6.90
2019-04-29T16:06:58.773Z,7.13
2019-04-29T16:09:51.891Z,8.10
2019-04-29T16:12:22.839Z,6.23
2019-04-29T16:14:52.636Z,7.23
2019-04-29T16:17:22.337Z,7.00
2019-04-29T16:19:51.998Z,6.30
2019-04-29T16:22:22.234Z,6.03
2019-04-29T16:24:58.928Z,6.10
2019-04-29T16:27:23.512Z,7.00
2019-04-29T16:29:54.267Z,5.93
2019-04-29T16:32:32.641Z,5.57
2019-04-29T16:35:02.324Z,6.50
2019-04-29T16:37:33.367Z,6.10
2019-04-29T16:40:03.167Z,6.53
2019-04-29T16:42:43.146Z,5.53
2019-04-29T16:45:14.369Z,5.70
2019-04-29T16:47:47.459Z,5.67
2019-04-29T16:50:15.841Z,5.30
2019-04-29T16:52:45.774Z,5.23
2019-04-29T16:55:15.532Z,5.97
2019-04-29T16:57:46.159Z,5.70
2019-04-29T17:00:20.139Z,5.13
2019-04-29T17:02:50.088Z,4.87
2019-04-29T17:05:19.833Z,3.50
2019-04-29T17:07:49.485Z,4.53
2019-04-29T17:10:28.289Z,4.90
2019-04-29T17:12:57.951Z,5.40
2019-04-29T17:15:28.063Z,5.03
2019-04-29T17:17:57.728Z,4.83
2019-04-29T17:20:27.403Z,4.47
2019-04-29T17:22:57.231Z,4.73
2019-04-29T17:25:26.980Z,4.37
2019-04-29T17:28:24.291Z,4.10
2019-04-29T17:31:02.138Z,4.37
2019-04-29T17:33:57.076Z,4.57
2019-04-29T17:36:27.312Z,3.67
2019-04-29T17:38:57.028Z,4.67
2019-04-29T17:41:26.673Z,4.00
2019-04-29T17:44:20.030Z,4.60
2019-04-29T17:46:56.436Z,4.00
2019-04-29T17:49:35.318Z,3.83
2019-04-29T17:52:09.051Z,4.37
2019-04-29T17:54:41.286Z,3.63
2019-04-29T17:57:29.206Z,3.90
2019-04-29T18:00:26.077Z,3.60
2019-04-29T18:03:15.176Z,3.70
2019-04-29T18:06:05.474Z,4.10
2019-04-29T18:08:44.882Z,4.10
2019-04-29T18:11:15.053Z,3.83
2019-04-29T18:13:45.850Z,3.47
2019-04-29T18:16:23.789Z,3.57
2019-04-29T18:19:15.778Z,3.47
2019-04-29T18:22:08.818Z,3.50
2019-04-29T18:24:45.528Z,3.53
2019-04-29T18:27:17.334Z,3.87
2019-04-29T18:29:47.104Z,3.67
2019-04-29T18:32:16.780Z,3.70
2019-04-29T18:34:46.512Z,3.70
2019-04-29T18:37:16.782Z,3.70
2019-04-29T18:39:46.499Z,3.80
2019-04-29T18:42:16.251Z,3.13
2019-04-29T18:44:54.977Z,3.40
2019-04-29T18:47:22.657Z,3.60
2019-04-29T18:49:49.696Z,3.67
2019-04-29T18:52:25.902Z,3.70
2019-04-29T18:54:50.721Z,3.60
2019-04-29T18:57:30.003Z,3.60
2019-04-29T18:59:51.739Z,2.93
2019-04-29T19:02:21.416Z,3.40
2019-04-29T19:04:56.848Z,3.47
2019-04-29T19:08:13.937Z,3.70
2019-04-29T19:10:40.051Z,3.63
2019-04-29T19:13:12.999Z,3.90
2019-04-29T19:15:45.045Z,3.83
2019-04-29T19:18:17.423Z,3.87
2019-04-29T19:20:47.846Z,3.73
2019-04-29T19:23:22.536Z,3.53
2019-04-29T19:25:49.852Z,3.30
2019-04-29T19:28:29.354Z,3.67
2019-04-29T19:30:51.021Z,3.60
2019-04-29T19:33:20.710Z,3.73
2019-04-29T19:44:55.966Z,4.43
2019-04-29T19:47:55.688Z,3.63
2019-04-29T19:50:25.755Z,3.80
2019-04-29T19:52:55.668Z,3.33
2019-04-29T19:55:27.843Z,2.63
2019-04-29T19:57:57.556Z,2.60
2019-04-29T20:00:29.295Z,2.73
2019-04-29T20:02:59.624Z,2.30
2019-04-29T20:05:41.408Z,2.77
2019-04-29T20:08:19.254Z,2.77
2019-04-29T20:10:48.052Z,2.30
2019-04-29T20:13:15.821Z,2.80
2019-04-29T20:15:55.733Z,2.07
2019-04-29T20:18:40.392Z,2.60
2019-04-29T20:21:24.929Z,2.53
2019-04-29T20:23:46.754Z,2.53
2019-04-29T20:26:23.393Z,1.83
2019-04-29T20:28:51.133Z,2.20
2019-04-29T20:31:22.194Z,1.77
2019-04-29T20:33:51.365Z,1.90
2019-04-29T20:36:37.415Z,1.67
2019-04-29T20:38:53.378Z,1.67
2019-04-29T20:41:37.768Z,1.60
2019-04-29T20:43:56.202Z,1.43
2019-04-29T20:46:34.264Z,2.27
2019-04-29T20:48:59.624Z,1.80
2019-04-29T20:51:48.802Z,1.80
2019-04-29T20:54:15.827Z,1.37
2019-04-29T20:56:46.956Z,1.50
2019-04-29T20:59:15.748Z,4.43
2019-04-29T21:01:52.016Z,2.10
2019-04-29T21:04:31.281Z,1.87
2019-04-29T21:07:01.859Z,3.10
2019-04-29T21:09:30.035Z,2.70
2019-04-29T21:12:10.570Z,2.13
2019-04-29T21:14:46.463Z,1.57
2019-04-29T21:17:27.971Z,3.73
2019-04-29T21:19:47.243Z,5.47
2019-04-29T21:22:21.972Z,3.40
2019-04-29T21:24:49.431Z,2.33
2019-04-29T21:27:22.571Z,1.17
2019-04-29T21:29:53.990Z,1.90
2019-04-29T21:32:34.598Z,0.80
2019-04-29T21:37:32.203Z,1.13
2019-04-29T21:40:14.832Z,0.83
2019-04-29T21:43:13.672Z,0.73
2019-04-29T21:45:45.018Z,0.90
2019-04-29T21:48:12.823Z,1.77
2019-04-29T21:50:42.518Z,1.27
2019-04-29T21:53:12.208Z,0.80
2019-04-29T21:55:41.907Z,0.40
2019-04-29T21:58:11.684Z,0.93
2019-04-29T22:00:41.362Z,0.47
2019-04-29T22:03:12.779Z,0.60
2019-04-29T22:05:42.636Z,0.80
2019-04-29T22:08:16.147Z,0.43
2019-04-29T22:10:45.173Z,0.83
2019-04-29T22:13:15.037Z,0.60
2019-04-29T22:15:45.583Z,0.43
2019-04-29T22:18:17.819Z,1.03
2019-04-29T22:20:47.662Z,0.57
2019-04-29T22:23:18.575Z,0.73
2019-04-29T22:25:48.727Z,0.63
2019-04-29T22:28:19.865Z,0.67
2019-04-29T22:30:54.818Z,0.40
2019-04-29T22:33:22.637Z,0.67
2019-04-29T22:35:52.501Z,0.30
2019-04-29T22:38:22.263Z,1.43
2019-04-29T22:40:54.994Z,0.30
2019-04-29T22:43:44.537Z,0.20
2019-04-29T22:46:17.285Z,0.57
2019-04-29T22:48:48.707Z,0.67
2019-04-29T22:51:18.815Z,0.10
2019-04-29T22:53:49.112Z,0.73
2019-04-29T22:56:19.121Z,0.20
2019-04-29T22:58:48.903Z,0.23
2019-04-29T23:01:18.576Z,0.47
2019-04-29T23:03:48.454Z,0.30
2019-04-29T23:06:18.324Z,0.10
2019-04-29T23:08:48.087Z,1.03
2019-04-29T23:11:17.791Z,0.33
2019-04-29T23:13:49.082Z,0.73
2019-04-29T23:16:19.026Z,0.40
2019-04-29T23:18:48.764Z,0.37
2019-04-29T23:21:46.790Z,0.20
2019-04-29T23:24:51.340Z,0.60
2019-04-29T23:27:19.936Z,0.60
2019-04-29T23:29:49.777Z,1.13
2019-04-29T23:32:19.707Z,0.63
2019-04-29T23:34:49.531Z,1.70
2019-04-29T23:37:23.756Z,0.50
2019-04-29T23:39:52.117Z,0.27
2019-04-29T23:42:21.888Z,0.40
2019-04-29T23:44:52.510Z,0.67
2019-04-29T23:47:22.843Z,0.30
2019-04-29T23:49:53.021Z,0.87
2019-04-29T23:52:23.077Z,0.30
2019-04-29T23:54:52.823Z,0.63
2019-04-29T23:57:47.701Z,0.50
